Terminal Aerodrome Forecast
Issued by NWS Brownsville, TX

Home | Current Version | Previous Version | Text Only | Print | Product List | Glossary On
Versions: 1 2 3 4 5 6 7 8 9 10 11 12 13 14 15 16 17 18 19 20 21 22 23 24
000
FTUS44 KBRO 201200 AAA
TAFHRL
TAF AMD
KHRL 201240Z 2013/2112 01010KT P6SM BKN007 OVC025
     FM201500 01010KT P6SM OVC019
     FM202000 03010KT P6SM OVC030
     FM202300 02006KT P6SM OVC035=

USA.gov is the U.S. government's official web portal to all federal, state and local government web resources and services.